createdAt,value
2018-03-07T00:00:50.132Z,10.63
2018-03-07T00:03:19.952Z,11.27
2018-03-07T00:05:49.853Z,10.17
2018-03-07T00:08:19.656Z,9.23
2018-03-07T00:10:49.764Z,10.40
2018-03-07T00:13:20.062Z,11.15
2018-03-07T00:15:50.236Z,10.40
2018-03-07T00:18:20.604Z,10.68
2018-03-07T00:20:52.261Z,11.83
2018-03-07T00:23:22.820Z,11.82
2018-03-07T00:25:52.612Z,10.90
2018-03-07T00:28:22.383Z,11.43
2018-03-07T00:30:52.185Z,11.57
2018-03-07T00:33:22.005Z,10.53
2018-03-07T00:35:53.060Z,10.50
2018-03-07T00:38:23.098Z,10.70
2018-03-07T00:40:52.890Z,10.53
2018-03-07T00:43:23.441Z,10.57
2018-03-07T00:45:54.010Z,9.40
2018-03-07T00:48:23.795Z,10.98
2018-03-07T00:50:53.692Z,11.33
2018-03-07T00:53:23.563Z,9.70
2018-03-07T00:55:53.765Z,11.33
2018-03-07T00:58:24.769Z,10.80
2018-03-07T01:00:55.288Z,9.63
2018-03-07T01:03:25.842Z,10.82
2018-03-07T01:05:55.653Z,11.20
2018-03-07T01:08:25.413Z,11.63
2018-03-07T01:10:55.176Z,12.13
2018-03-07T01:13:26.417Z,11.37
2018-03-07T01:15:56.179Z,11.97
2018-03-07T01:18:26.114Z,11.20
2018-03-07T01:20:56.330Z,10.80
2018-03-07T01:23:27.299Z,11.20
2018-03-07T01:25:57.401Z,10.53
2018-03-07T01:28:28.245Z,10.63
2018-03-07T01:30:58.109Z,9.77
2018-03-07T01:33:27.954Z,10.10
2018-03-07T01:35:58.538Z,9.73
2018-03-07T01:38:28.380Z,10.27
2018-03-07T01:40:58.349Z,9.03
2018-03-07T01:43:29.543Z,8.13
2018-03-07T01:45:59.304Z,9.07
2018-03-07T01:48:29.137Z,9.57
2018-03-07T01:50:58.953Z,9.33
2018-03-07T01:53:31.013Z,9.95
2018-03-07T01:56:00.781Z,9.40
2018-03-07T01:58:31.310Z,9.83
2018-03-07T02:01:01.918Z,9.43
2018-03-07T02:03:31.708Z,10.07
2018-03-07T02:06:01.564Z,13.27
2018-03-07T02:08:32.077Z,12.87
2018-03-07T02:11:01.854Z,13.03
2018-03-07T02:13:31.645Z,10.63
2018-03-07T02:16:02.556Z,9.67
2018-03-07T02:18:32.359Z,9.50
2018-03-07T02:21:02.915Z,10.47
2018-03-07T02:23:32.614Z,8.25
2018-03-07T02:26:03.130Z,9.90
2018-03-07T02:28:33.625Z,8.30
2018-03-07T02:31:03.390Z,10.33
2018-03-07T02:33:33.136Z,9.00
2018-03-07T02:36:03.995Z,9.77
2018-03-07T02:38:34.365Z,8.60
2018-03-07T02:41:04.064Z,9.90
2018-03-07T02:43:34.858Z,9.00
2018-03-07T02:46:04.562Z,9.00
2018-03-07T02:48:35.143Z,9.80
2018-03-07T02:51:04.868Z,11.37
2018-03-07T02:53:34.822Z,10.77
2018-03-07T02:56:05.064Z,11.50
2018-03-07T02:58:36.173Z,11.98
2018-03-07T03:01:05.946Z,10.53
2018-03-07T03:03:36.409Z,10.20
2018-03-07T03:06:06.994Z,12.13
2018-03-07T03:08:37.360Z,10.00
2018-03-07T03:11:07.452Z,9.80
2018-03-07T03:13:37.230Z,9.60
2018-03-07T03:16:06.994Z,10.23
2018-03-07T03:18:37.161Z,10.13
2018-03-07T03:21:07.605Z,10.90
2018-03-07T03:23:38.521Z,10.25
2018-03-07T03:26:08.290Z,10.40
2018-03-07T03:28:38.947Z,10.10
2018-03-07T03:31:08.730Z,9.60
2018-03-07T03:33:38.502Z,9.63
2018-03-07T03:36:09.514Z,9.57
2018-03-07T03:38:39.214Z,9.70
2018-03-07T03:41:09.157Z,9.90
2018-03-07T03:43:39.391Z,11.37
2018-03-07T03:46:10.398Z,11.70
2018-03-07T03:48:40.149Z,12.30
2018-03-07T03:51:10.840Z,12.00
2018-03-07T03:53:40.537Z,13.10
2018-03-07T03:56:11.017Z,13.57
2018-03-07T03:58:41.498Z,13.73
2018-03-07T04:01:11.194Z,11.60
2018-03-07T04:03:41.101Z,12.73
2018-03-07T04:06:12.800Z,11.65
2018-03-07T04:08:42.493Z,9.20
2018-03-07T04:11:12.304Z,4.40
2018-03-07T04:13:42.015Z,5.00
2018-03-07T04:16:12.205Z,3.23
2018-03-07T04:18:42.957Z,3.20
2018-03-07T04:21:12.648Z,3.13
2018-03-07T04:23:43.177Z,2.80
2018-03-07T04:26:13.306Z,3.07
2018-03-07T04:28:43.566Z,4.07
2018-03-07T04:31:14.448Z,3.30
2018-03-07T04:33:44.214Z,3.60
2018-03-07T04:36:14.130Z,3.00
2018-03-07T04:38:44.256Z,3.40
2018-03-07T04:41:16.294Z,2.90
2018-03-07T04:43:46.055Z,2.80
2018-03-07T04:46:16.031Z,2.60
2018-03-07T04:48:45.705Z,2.30
2018-03-07T04:51:16.345Z,2.27
2018-03-07T04:53:46.070Z,2.57
2018-03-07T04:56:15.807Z,3.03
2018-03-07T04:58:47.241Z,4.30
2018-03-07T05:01:16.921Z,3.30
2018-03-07T05:03:47.846Z,3.53
2018-03-07T05:06:17.613Z,2.87
2018-03-07T05:08:47.566Z,1.70
2018-03-07T05:11:17.713Z,2.43
2018-03-07T05:13:48.078Z,2.03
2018-03-07T05:16:18.137Z,2.40
2018-03-07T05:18:48.572Z,2.03
2018-03-07T05:21:18.556Z,1.83
2018-03-07T05:23:49.182Z,2.10
2018-03-07T05:26:19.945Z,2.33
2018-03-07T05:28:50.324Z,2.07
2018-03-07T05:31:20.082Z,2.00
2018-03-07T05:33:51.398Z,2.15
2018-03-07T05:36:21.882Z,1.60
2018-03-07T05:38:51.672Z,1.40
2018-03-07T05:41:21.404Z,1.67
2018-03-07T05:43:51.173Z,2.33
2018-03-07T05:46:21.859Z,2.40
2018-03-07T05:48:51.693Z,2.50
2018-03-07T05:51:21.386Z,2.80
2018-03-07T05:53:51.081Z,2.80
2018-03-07T05:56:20.757Z,2.63
2018-03-07T05:58:50.439Z,2.40
2018-03-07T06:01:20.880Z,2.87
2018-03-07T06:03:50.583Z,2.70
2018-03-07T06:06:20.321Z,2.83
2018-03-07T06:08:50.023Z,2.37
2018-03-07T06:11:19.726Z,2.97
2018-03-07T06:13:49.478Z,3.00
2018-03-07T06:16:19.263Z,2.80
2018-03-07T06:18:48.982Z,3.20
2018-03-07T06:21:18.662Z,2.83
2018-03-07T06:23:49.067Z,3.70
2018-03-07T06:26:19.564Z,4.17
2018-03-07T06:28:49.294Z,3.57
2018-03-07T06:31:19.020Z,3.60
2018-03-07T06:33:49.637Z,3.85
2018-03-07T06:36:20.999Z,3.70
2018-03-07T06:38:51.453Z,3.87
2018-03-07T06:41:22.478Z,3.30
2018-03-07T06:43:52.190Z,4.10
2018-03-07T06:46:21.890Z,3.70
2018-03-07T06:48:52.778Z,3.40
2018-03-07T06:51:22.472Z,4.10
2018-03-07T06:53:57.674Z,4.50
2018-03-07T06:56:28.183Z,4.10
2018-03-07T06:58:57.862Z,3.83
2018-03-07T07:01:27.739Z,4.22
2018-03-07T07:03:58.706Z,4.37
2018-03-07T07:06:28.402Z,3.80
2018-03-07T07:08:58.556Z,3.65
2018-03-07T07:11:28.930Z,4.07
2018-03-07T07:13:59.061Z,3.90
2018-03-07T07:16:29.182Z,4.43
2018-03-07T07:18:59.378Z,4.10
2018-03-07T07:21:29.645Z,4.45
2018-03-07T07:24:00.721Z,5.00
2018-03-07T07:26:31.170Z,5.45
2018-03-07T07:29:02.402Z,5.20
2018-03-07T07:31:32.919Z,5.72
2018-03-07T07:34:03.409Z,5.60
2018-03-07T07:36:33.239Z,5.70
2018-03-07T07:39:02.947Z,5.60
2018-03-07T07:41:32.680Z,5.68
2018-03-07T07:44:02.982Z,5.33
2018-03-07T07:46:32.700Z,5.97
2018-03-07T07:49:02.717Z,5.80
2018-03-07T07:51:32.524Z,5.97
2018-03-07T07:54:02.491Z,5.73
2018-03-07T07:56:33.338Z,6.03
2018-03-07T07:59:03.412Z,6.00
2018-03-07T08:01:33.945Z,5.60
2018-03-07T08:04:03.719Z,6.10
2018-03-07T08:06:33.442Z,6.10
2018-03-07T08:09:03.154Z,6.70
2018-03-07T08:11:34.592Z,6.67
2018-03-07T08:14:05.059Z,6.00
2018-03-07T08:16:35.662Z,6.25
2018-03-07T08:19:05.384Z,6.90
2018-03-07T08:21:35.126Z,8.00
2018-03-07T08:24:06.245Z,6.62
2018-03-07T08:26:37.219Z,8.20
2018-03-07T08:29:06.998Z,9.63
2018-03-07T08:31:37.510Z,10.73
2018-03-07T08:34:07.199Z,10.80
2018-03-07T08:36:36.942Z,10.68
2018-03-07T08:39:06.910Z,9.93
2018-03-07T08:41:36.633Z,10.53
2018-03-07T08:44:07.905Z,9.80
2018-03-07T08:46:37.629Z,10.40
2018-03-07T08:49:08.316Z,10.15
2018-03-07T08:51:38.007Z,10.23
2018-03-07T08:54:08.762Z,10.00
2018-03-07T08:56:38.494Z,9.00
2018-03-07T08:59:08.407Z,11.40
2018-03-07T09:01:38.681Z,10.60
2018-03-07T09:04:08.837Z,10.97
2018-03-07T09:06:39.029Z,9.80
2018-03-07T09:09:10.220Z,9.73
2018-03-07T09:11:39.943Z,7.53
2018-03-07T09:14:09.684Z,6.30
2018-03-07T09:16:39.743Z,6.03
2018-03-07T09:19:11.007Z,6.00
2018-03-07T09:21:40.808Z,5.60
2018-03-07T09:24:11.957Z,5.47
2018-03-07T09:26:41.828Z,5.33
2018-03-07T09:29:13.082Z,5.65
2018-03-07T09:31:42.781Z,5.67
2018-03-07T09:34:12.559Z,6.43
2018-03-07T09:36:42.845Z,5.50
2018-03-07T09:39:12.612Z,5.97
2018-03-07T09:41:43.070Z,5.90
2018-03-07T09:44:12.802Z,5.80
2018-03-07T09:46:42.582Z,6.30
2018-03-07T09:49:12.766Z,5.43
2018-03-07T09:51:43.988Z,5.70
2018-03-07T09:54:13.779Z,5.60
2018-03-07T09:56:43.542Z,5.30
2018-03-07T09:59:14.103Z,6.32
2018-03-07T10:01:43.975Z,6.00
2018-03-07T10:04:14.956Z,5.60
2018-03-07T10:06:45.294Z,6.10
2018-03-07T10:09:15.034Z,6.68
2018-03-07T10:11:45.070Z,5.75
2018-03-07T10:14:15.535Z,5.40
2018-03-07T10:16:46.242Z,5.55
2018-03-07T10:19:16.718Z,6.70
2018-03-07T10:21:51.591Z,6.60
2018-03-07T10:24:22.147Z,6.27
2018-03-07T10:26:51.865Z,7.32
2018-03-07T10:29:21.794Z,6.20
2018-03-07T10:31:51.536Z,6.80
2018-03-07T10:34:21.297Z,6.90
2018-03-07T10:36:51.917Z,7.37
2018-03-07T10:39:21.699Z,6.70
2018-03-07T10:41:52.193Z,6.00
2018-03-07T10:44:21.890Z,3.97
2018-03-07T10:46:51.595Z,4.83
2018-03-07T10:49:21.911Z,6.20
2018-03-07T10:51:51.602Z,6.87
2018-03-07T10:54:21.322Z,9.67
2018-03-07T10:56:51.126Z,8.97
2018-03-07T10:59:21.462Z,5.13
2018-03-07T11:01:51.139Z,5.03
2018-03-07T11:04:23.409Z,3.50
2018-03-07T11:06:53.854Z,4.63
2018-03-07T11:09:23.621Z,2.70
2018-03-07T11:11:53.297Z,2.10
2018-03-07T11:14:24.551Z,1.73
2018-03-07T11:16:54.260Z,1.30
2018-03-07T11:19:23.987Z,1.40
2018-03-07T11:21:53.770Z,1.30
2018-03-07T11:24:23.485Z,1.10
2018-03-07T11:26:53.253Z,0.70
2018-03-07T11:29:23.719Z,1.10
2018-03-07T11:31:53.471Z,1.60
2018-03-07T11:34:23.223Z,1.27
2018-03-07T11:36:54.149Z,1.20
2018-03-07T11:39:24.622Z,1.13
2018-03-07T11:41:54.357Z,1.20
2018-03-07T11:44:24.053Z,1.50
2018-03-07T11:46:54.608Z,1.20
2018-03-07T11:49:24.339Z,1.33
2018-03-07T11:51:54.179Z,1.70
2018-03-07T11:54:24.442Z,1.40
2018-03-07T11:56:55.589Z,1.15
2018-03-07T11:59:25.408Z,1.50
2018-03-07T12:01:55.211Z,1.70
2018-03-07T12:04:25.326Z,1.27
2018-03-07T12:06:56.265Z,1.57
2018-03-07T12:09:26.038Z,1.27
2018-03-07T12:11:56.736Z,1.60
2018-03-07T12:14:27.249Z,1.92
2018-03-07T12:16:57.773Z,1.93
2018-03-07T12:19:27.515Z,1.53
2018-03-07T12:21:57.790Z,1.97
2018-03-07T12:24:28.438Z,2.00
2018-03-07T12:26:58.118Z,1.90
2018-03-07T12:29:27.928Z,2.47
2018-03-07T12:31:57.931Z,2.30
2018-03-07T12:34:28.305Z,2.12
2018-03-07T12:36:58.278Z,2.20
2018-03-07T12:39:29.411Z,2.03
2018-03-07T12:41:59.150Z,2.87
2018-03-07T12:44:28.897Z,2.57
2018-03-07T12:46:59.965Z,1.70
2018-03-07T12:49:29.716Z,2.13
2018-03-07T12:51:59.425Z,2.80
2018-03-07T12:54:30.698Z,2.37
2018-03-07T12:57:01.145Z,2.50
2018-03-07T12:59:31.589Z,2.58
2018-03-07T13:02:01.304Z,2.43
2018-03-07T13:04:31.011Z,2.53
2018-03-07T13:07:01.250Z,2.50
2018-03-07T13:09:32.096Z,2.70
2018-03-07T13:12:01.855Z,3.37
2018-03-07T13:14:32.915Z,3.36
2018-03-07T13:17:02.647Z,2.90
2018-03-07T13:19:32.709Z,2.27
2018-03-07T13:22:02.496Z,3.40
2018-03-07T13:24:32.630Z,3.17
2018-03-07T13:27:03.886Z,2.95
2018-03-07T13:29:34.452Z,3.08
2018-03-07T13:32:04.153Z,2.90
2018-03-07T13:34:33.902Z,2.83
2018-03-07T13:37:04.034Z,3.83
2018-03-07T13:39:34.187Z,2.85
2018-03-07T13:42:04.461Z,2.70
2018-03-07T13:44:34.744Z,2.33
2018-03-07T13:47:04.576Z,2.63
2018-03-07T13:49:35.683Z,2.60
2018-03-07T13:52:06.189Z,2.70
2018-03-07T13:54:35.959Z,2.70
2018-03-07T13:57:07.637Z,3.00
2018-03-07T13:59:37.353Z,2.87
2018-03-07T14:02:07.224Z,2.43
2018-03-07T14:04:37.903Z,2.63
2018-03-07T14:07:07.667Z,2.70
2018-03-07T14:09:37.456Z,2.70
2018-03-07T14:12:08.042Z,2.20
2018-03-07T14:14:37.721Z,2.30
2018-03-07T14:17:07.439Z,2.63
2018-03-07T14:19:37.842Z,2.87
2018-03-07T14:22:08.017Z,2.60
2018-03-07T14:24:38.250Z,3.30
2018-03-07T14:27:09.123Z,3.10
2018-03-07T14:29:40.799Z,3.08
2018-03-07T14:32:10.803Z,2.47
2018-03-07T14:34:41.354Z,3.00
2018-03-07T14:37:11.033Z,2.90
2018-03-07T14:39:41.848Z,2.73
2018-03-07T14:42:12.413Z,2.37
2018-03-07T14:44:42.216Z,3.20
2018-03-07T14:47:11.990Z,2.83
2018-03-07T14:49:41.715Z,2.40
2018-03-07T14:52:12.599Z,2.77
2018-03-07T14:54:43.197Z,2.67
2018-03-07T14:57:13.719Z,2.77
2018-03-07T14:59:45.121Z,2.50
2018-03-07T15:02:16.468Z,2.70
2018-03-07T15:04:46.225Z,3.00
2018-03-07T15:07:15.981Z,2.70
2018-03-07T15:09:46.952Z,2.63
2018-03-07T15:12:16.709Z,3.03
2018-03-07T15:14:46.467Z,2.57
2018-03-07T15:17:16.325Z,2.60
2018-03-07T15:19:47.108Z,2.83
2018-03-07T15:22:17.220Z,2.60
2018-03-07T15:24:48.036Z,3.03
2018-03-07T15:27:17.747Z,3.13
2018-03-07T15:29:48.421Z,2.57
2018-03-07T15:32:18.195Z,3.33
2018-03-07T15:34:48.540Z,2.57
2018-03-07T15:37:19.470Z,2.80
2018-03-07T15:39:49.198Z,3.00
2018-03-07T15:42:19.329Z,2.90
2018-03-07T15:44:50.514Z,2.90
2018-03-07T15:47:20.266Z,2.67
2018-03-07T15:49:50.210Z,2.70
2018-03-07T15:52:20.685Z,2.50
2018-03-07T15:54:51.014Z,2.60
2018-03-07T15:57:20.721Z,2.83
2018-03-07T15:59:50.377Z,3.37
2018-03-07T16:02:20.886Z,2.97
2018-03-07T16:04:50.998Z,3.27
2018-03-07T16:07:21.757Z,3.17
2018-03-07T16:09:52.302Z,2.80
2018-03-07T16:12:22.772Z,2.73
2018-03-07T16:14:52.477Z,2.70
2018-03-07T16:17:24.101Z,3.17
2018-03-07T16:19:54.846Z,3.13
2018-03-07T16:22:24.902Z,3.30
2018-03-07T16:24:54.593Z,2.33
2018-03-07T16:27:24.260Z,3.37
2018-03-07T16:29:54.685Z,3.30
2018-03-07T16:32:25.609Z,3.00
2018-03-07T16:34:55.285Z,2.80
2018-03-07T16:37:25.011Z,2.60
2018-03-07T16:39:54.821Z,3.30
2018-03-07T16:42:24.526Z,3.80
2018-03-07T16:44:54.208Z,3.10
2018-03-07T16:47:23.871Z,3.03
2018-03-07T16:49:53.707Z,3.10
2018-03-07T16:52:24.233Z,2.50
2018-03-07T16:54:53.966Z,3.70
2018-03-07T16:57:23.724Z,3.03
2018-03-07T16:59:55.525Z,3.67
2018-03-07T17:02:25.816Z,3.40
2018-03-07T17:04:57.071Z,3.30
2018-03-07T17:07:27.539Z,4.10
2018-03-07T17:09:57.214Z,3.23
2018-03-07T17:12:28.771Z,3.30
2018-03-07T17:14:58.461Z,3.43
2018-03-07T17:17:29.291Z,2.87
2018-03-07T17:19:59.069Z,2.80
2018-03-07T17:22:29.525Z,3.00
2018-03-07T17:24:59.230Z,3.70
2018-03-07T17:27:29.035Z,2.93
2018-03-07T17:29:58.738Z,3.30
2018-03-07T17:32:28.502Z,3.55
2018-03-07T17:34:58.182Z,3.90
2018-03-07T17:37:28.739Z,3.65
2018-03-07T17:39:58.625Z,3.20
2018-03-07T17:42:28.322Z,3.60
2018-03-07T17:44:58.041Z,3.80
2018-03-07T17:47:28.547Z,3.03
2018-03-07T17:49:59.716Z,4.63
2018-03-07T17:52:30.209Z,3.50
2018-03-07T17:55:00.526Z,3.83
2018-03-07T17:57:30.849Z,3.53
2018-03-07T18:00:00.567Z,3.50
2018-03-07T18:02:30.295Z,3.97
2018-03-07T18:05:00.004Z,3.73
2018-03-07T18:07:29.665Z,3.20
2018-03-07T18:10:00.220Z,4.07
2018-03-07T18:12:30.934Z,3.67
2018-03-07T18:15:00.703Z,3.40
2018-03-07T18:17:30.925Z,3.60
2018-03-07T18:20:01.429Z,3.73
2018-03-07T18:22:31.178Z,3.75
2018-03-07T18:25:00.993Z,4.20
2018-03-07T18:27:31.503Z,4.50
2018-03-07T18:30:01.315Z,4.03
2018-03-07T18:32:31.773Z,4.18
2018-03-07T18:35:01.761Z,4.43
2018-03-07T18:37:33.724Z,3.50
2018-03-07T18:40:04.216Z,4.17
2018-03-07T18:42:34.849Z,4.07
2018-03-07T18:45:04.610Z,3.77
2018-03-07T18:47:35.050Z,4.07
2018-03-07T18:50:04.906Z,4.30
2018-03-07T18:52:34.576Z,3.65
2018-03-07T18:55:04.337Z,3.83
2018-03-07T18:57:34.029Z,4.73
2018-03-07T19:00:03.840Z,4.20
2018-03-07T19:02:33.518Z,3.37
2018-03-07T19:05:03.198Z,4.77
2018-03-07T19:07:34.585Z,4.65
2018-03-07T19:10:04.549Z,4.22
2018-03-07T19:12:34.886Z,3.83
2018-03-07T19:15:05.373Z,3.93
2018-03-07T19:17:36.611Z,4.38
2018-03-07T19:20:06.310Z,4.63
2018-03-07T19:22:37.725Z,4.62
2018-03-07T19:25:08.289Z,3.90
2018-03-07T19:27:38.621Z,5.37
2018-03-07T19:30:08.302Z,4.27
2018-03-07T19:32:37.966Z,4.43
2018-03-07T19:35:07.670Z,4.07
2018-03-07T19:37:37.338Z,4.80
2018-03-07T19:40:07.826Z,4.82
2018-03-07T19:42:39.276Z,5.10
2018-03-07T19:45:09.838Z,6.10
2018-03-07T19:47:39.619Z,6.32
2018-03-07T19:50:11.015Z,6.60
2018-03-07T19:52:40.934Z,7.65
2018-03-07T19:55:11.162Z,7.33
2018-03-07T19:57:40.858Z,7.23
2018-03-07T20:00:10.661Z,7.10
2018-03-07T20:02:41.973Z,6.65
2018-03-07T20:05:12.451Z,7.40
2018-03-07T20:07:43.117Z,8.02
2018-03-07T20:10:12.862Z,7.73
2018-03-07T20:12:43.329Z,7.57
2018-03-07T20:15:13.045Z,6.10
2018-03-07T20:17:42.788Z,6.00
2018-03-07T20:20:13.242Z,5.93
2018-03-07T20:22:43.625Z,6.32
2018-03-07T20:25:13.333Z,6.67
2018-03-07T20:27:43.035Z,6.83
2018-03-07T20:30:14.627Z,5.50
2018-03-07T20:32:45.141Z,6.17
2018-03-07T20:35:15.674Z,6.27
2018-03-07T20:37:46.166Z,6.10
2018-03-07T20:40:15.878Z,6.57
2018-03-07T20:42:45.610Z,6.50
2018-03-07T20:45:16.005Z,6.20
2018-03-07T20:47:45.755Z,6.50
2018-03-07T20:50:16.853Z,6.60
2018-03-07T20:52:46.533Z,6.43
2018-03-07T20:55:16.392Z,6.73
2018-03-07T20:57:47.190Z,7.30
2018-03-07T21:00:16.922Z,6.93
2018-03-07T21:02:46.601Z,6.60
2018-03-07T21:05:16.351Z,6.17
2018-03-07T21:07:46.410Z,5.37
2018-03-07T21:10:16.903Z,5.40
2018-03-07T21:12:46.623Z,6.00
2018-03-07T21:15:16.437Z,5.82
2018-03-07T21:17:46.927Z,6.77
2018-03-07T21:20:17.281Z,5.83
2018-03-07T21:22:46.998Z,5.40
2018-03-07T21:25:16.731Z,6.10
2018-03-07T21:27:48.235Z,6.37
2018-03-07T21:30:17.970Z,6.30
2018-03-07T21:32:47.799Z,6.30
2018-03-07T21:35:18.284Z,5.50
2018-03-07T21:37:47.985Z,5.67
2018-03-07T21:40:17.669Z,5.63
2018-03-07T21:42:47.761Z,6.20
2018-03-07T21:45:18.878Z,5.10
2018-03-07T21:47:48.585Z,6.28
2018-03-07T21:50:18.357Z,5.17
2018-03-07T21:52:48.617Z,5.22
2018-03-07T21:55:18.821Z,5.60
2018-03-07T21:57:49.118Z,4.90
2018-03-07T22:00:20.238Z,5.10
2018-03-07T22:02:50.711Z,5.50
2018-03-07T22:05:20.479Z,5.20
2018-03-07T22:07:50.979Z,5.85
2018-03-07T22:10:21.290Z,5.53
2018-03-07T22:12:51.829Z,5.10
2018-03-07T22:15:21.553Z,4.97
2018-03-07T22:17:51.660Z,5.73
2018-03-07T22:20:21.373Z,4.97
2018-03-07T22:22:52.197Z,4.72
2018-03-07T22:25:21.909Z,6.10
2018-03-07T22:27:51.663Z,5.20
2018-03-07T22:30:23.285Z,5.17
2018-03-07T22:32:52.995Z,5.32
2018-03-07T22:35:22.756Z,5.57
2018-03-07T22:37:53.400Z,5.17
2018-03-07T22:40:23.165Z,4.67
2018-03-07T22:42:52.857Z,5.03
2018-03-07T22:45:23.855Z,5.03
2018-03-07T22:47:53.561Z,4.90
2018-03-07T22:50:23.256Z,5.03
2018-03-07T22:52:53.043Z,5.23
2018-03-07T22:55:24.438Z,5.17
2018-03-07T22:57:54.441Z,4.87
2018-03-07T23:00:29.588Z,5.40
2018-03-07T23:02:59.301Z,6.40
2018-03-07T23:05:28.982Z,5.17
2018-03-07T23:07:59.458Z,5.33
2018-03-07T23:10:29.206Z,5.77
2018-03-07T23:12:59.684Z,5.80
2018-03-07T23:15:29.700Z,6.07
2018-03-07T23:17:59.422Z,6.23
2018-03-07T23:20:29.137Z,5.80
2018-03-07T23:22:59.822Z,5.87
2018-03-07T23:25:29.554Z,5.67
2018-03-07T23:27:59.345Z,5.17
2018-03-07T23:30:29.865Z,5.30
2018-03-07T23:32:59.627Z,5.97
2018-03-07T23:35:29.304Z,5.43
2018-03-07T23:37:59.095Z,5.47
2018-03-07T23:40:28.827Z,5.50
2018-03-07T23:43:00.419Z,5.70
2018-03-07T23:45:30.141Z,6.67
2018-03-07T23:47:59.817Z,6.07
2018-03-07T23:50:29.538Z,5.70
2018-03-07T23:52:59.261Z,6.00
2018-03-07T23:55:29.246Z,6.00
2018-03-07T23:57:59.382Z,5.40
